NLSK1: Solomon River, Niles, KS

                                SHEF ID:       NLSK1     SOLOMON R AT NILES, KS
STATION TYPE:

PRECIP STAGE RIV-FLOW BAT-LOAD
in ft cfs volt
Ccp-Rev Ccp-Rev Ccp-Rev Ccp-Rev
(America/Chicago)
07/27 00:00 0.00 14.39 2228 11.79
07/27 01:00 0.00 14.29 2196 11.76
07/27 02:00 0.00 14.17 2159 11.72
07/27 03:00 0.00 14.04 2118 11.70
07/27 04:00 0.00 13.91 2077 11.68
07/27 05:00 0.00 13.75 2028 11.66
07/27 06:00 0.00 13.59 1979 11.65
07/27 07:00 0.00 13.41 1925 11.64
07/27 08:00 0.00 13.22 1868 11.66
07/27 09:00 0.00 13.02 1809 11.71
07/27 10:00 0.00 12.81 1748 12.14
07/27 11:00 0.00 12.60 1688 12.32
07/27 12:00 0.00 12.37 1624 12.52
07/27 13:00 0.00 12.15 1563 12.57
07/27 14:00 0.00 11.91 1498 12.44
07/27 15:00 0.00 11.68 1436 12.45
07/27 16:00 0.00 11.44 1373 12.42
07/27 17:00 0.00 11.21 1314 12.37
07/27 18:00 0.00 10.97 1254 12.23
07/27 19:00 0.00 10.74 1197 11.96
07/27 20:00 0.00 10.52 1144 11.75
07/27 21:00 0.00 10.30 1091 11.75
07/27 22:00 0.00 10.10 1045 11.74
07/27 23:00 ---- 9.91 1001 11.75
Data processed at Tue 28Jul2026 04:41 GMT

NOTICE: If you are parsing this page

Please convert to using our Data API. Starting early 2026 we will be migrating to: https://water.usace.army.mil with modern pages rendered in JavaScript. When this migration completes you will no longer be able to scrape this page! CWMSDataAPI (CDA)

Timeseries IDs (TSIDs)

TSIDs used from left to right in the data table
NLSK.Precip-Inc.Total.1Hour.1Hour.Ccp-Rev
NLSK.Stage.Inst.1Hour.0.Ccp-Rev
NLSK.Flow.Inst.1Hour.0.Ccp-Rev
NLSK.Volt-Battery Load.Inst.1Hour.0.Ccp-Rev

                            

All information presented herein is the property of the government of the United States of America and may be revised or deleted at any time without prior notice. Dissemination of this information without the expressed written consent of the Public Affairs Office, Tulsa District U.S. Army Corps of Engineers is strictly prohibited. These data are gathered electronically and, as presented, have NOT undergone any form of quality control. These data are NOT guaranteed to be valid or correct.